Terminal Aerodrome Forecast
Issued by NWS Central Illinois

Home | Current Version | Previous Version | Text Only | Print | Product List | Glossary On
Versions: 1 2 3 4 5 6 7 8 9 10 11 12 13 14 15 16 17 18
000
FTUS43 KILX 251800 AAA
TAFPIA
TAF AMD
KPIA 251846Z 2519/2618 19010G18KT P6SM VCTS FEW007 SCT015CB BKN050
      TEMPO 2519/2520 5SM TSRA BKN015CB
     FM252000 20011KT P6SM VCSH SCT060 BKN110
     FM260200 18008KT P6SM SCT050 BKN120
      TEMPO 2609/2613 4SM BR=

USA.gov is the U.S. government's official web portal to all federal, state and local government web resources and services.